sensor_id;sensor_type;location;lat;lon;timestamp;temperature;humidity
10294;DHT22;5192;50.328;7.610;2023-08-30T00:02:28;14.40;99.80
10294;DHT22;5192;50.328;7.610;2023-08-30T00:05:01;14.30;99.90
10294;DHT22;5192;50.328;7.610;2023-08-30T00:07:38;14.40;99.90
10294;DHT22;5192;50.328;7.610;2023-08-30T00:10:06;14.40;99.60
10294;DHT22;5192;50.328;7.610;2023-08-30T00:12:33;14.40;99.00
10294;DHT22;5192;50.328;7.610;2023-08-30T00:15:00;14.40;97.10
10294;DHT22;5192;50.328;7.610;2023-08-30T00:17:28;14.40;97.50
10294;DHT22;5192;50.328;7.610;2023-08-30T00:19:54;14.40;97.50
10294;DHT22;5192;50.328;7.610;2023-08-30T00:22:21;14.40;96.40
10294;DHT22;5192;50.328;7.610;2023-08-30T00:24:50;14.40;96.70
10294;DHT22;5192;50.328;7.610;2023-08-30T00:27:18;14.50;97.00
10294;DHT22;5192;50.328;7.610;2023-08-30T00:29:49;14.50;97.10
10294;DHT22;5192;50.328;7.610;2023-08-30T00:32:14;14.50;96.80
10294;DHT22;5192;50.328;7.610;2023-08-30T00:34:42;14.50;96.80
10294;DHT22;5192;50.328;7.610;2023-08-30T00:37:10;14.50;97.00
10294;DHT22;5192;50.328;7.610;2023-08-30T00:39:40;14.50;96.90
10294;DHT22;5192;50.328;7.610;2023-08-30T00:42:08;14.50;96.50
10294;DHT22;5192;50.328;7.610;2023-08-30T00:44:35;14.50;95.80
10294;DHT22;5192;50.328;7.610;2023-08-30T00:47:02;14.50;96.10
10294;DHT22;5192;50.328;7.610;2023-08-30T00:49:33;14.50;96.30
10294;DHT22;5192;50.328;7.610;2023-08-30T00:52:03;14.50;96.40
10294;DHT22;5192;50.328;7.610;2023-08-30T00:54:33;14.50;95.10
10294;DHT22;5192;50.328;7.610;2023-08-30T00:57:01;14.50;95.70
10294;DHT22;5192;50.328;7.610;2023-08-30T00:59:33;14.50;96.50
10294;DHT22;5192;50.328;7.610;2023-08-30T01:01:59;14.50;96.60
10294;DHT22;5192;50.328;7.610;2023-08-30T01:04:29;14.50;96.60
10294;DHT22;5192;50.328;7.610;2023-08-30T01:06:56;14.50;97.10
10294;DHT22;5192;50.328;7.610;2023-08-30T01:09:25;14.50;97.90
10294;DHT22;5192;50.328;7.610;2023-08-30T01:12:11;14.50;97.60
10294;DHT22;5192;50.328;7.610;2023-08-30T01:15:01;14.50;97.50
10294;DHT22;5192;50.328;7.610;2023-08-30T01:17:28;14.50;97.20
10294;DHT22;5192;50.328;7.610;2023-08-30T01:20:14;14.50;97.70
10294;DHT22;5192;50.328;7.610;2023-08-30T01:23:03;14.50;98.00
10294;DHT22;5192;50.328;7.610;2023-08-30T01:28:45;14.50;98.50
10294;DHT22;5192;50.328;7.610;2023-08-30T01:31:13;14.50;97.70
10294;DHT22;5192;50.328;7.610;2023-08-30T01:33:42;14.40;97.50
10294;DHT22;5192;50.328;7.610;2023-08-30T01:36:09;14.40;97.70
10294;DHT22;5192;50.328;7.610;2023-08-30T01:38:37;14.40;97.80
10294;DHT22;5192;50.328;7.610;2023-08-30T01:41:06;14.40;98.40
10294;DHT22;5192;50.328;7.610;2023-08-30T01:43:34;14.30;98.50
10294;DHT22;5192;50.328;7.610;2023-08-30T01:46:03;14.40;98.80
10294;DHT22;5192;50.328;7.610;2023-08-30T01:48:32;14.30;99.30
10294;DHT22;5192;50.328;7.610;2023-08-30T01:51:01;14.30;99.60
10294;DHT22;5192;50.328;7.610;2023-08-30T01:53:30;14.30;99.90
10294;DHT22;5192;50.328;7.610;2023-08-30T01:55:58;14.30;99.90
10294;DHT22;5192;50.328;7.610;2023-08-30T01:58:27;14.30;99.70
10294;DHT22;5192;50.328;7.610;2023-08-30T02:00:55;14.30;99.50
10294;DHT22;5192;50.328;7.610;2023-08-30T02:03:22;14.30;99.90
10294;DHT22;5192;50.328;7.610;2023-08-30T02:06:07;14.30;99.90
10294;DHT22;5192;50.328;7.610;2023-08-30T02:09:09;14.20;99.70
10294;DHT22;5192;50.328;7.610;2023-08-30T02:11:37;14.10;99.50
10294;DHT22;5192;50.328;7.610;2023-08-30T02:14:05;14.10;99.90
10294;DHT22;5192;50.328;7.610;2023-08-30T02:16:34;14.00;99.30
10294;DHT22;5192;50.328;7.610;2023-08-30T02:19:05;14.00;99.90
10294;DHT22;5192;50.328;7.610;2023-08-30T02:21:32;13.90;99.90
10294;DHT22;5192;50.328;7.610;2023-08-30T02:23:57;13.90;99.90
10294;DHT22;5192;50.328;7.610;2023-08-30T02:26:24;13.90;99.90
10294;DHT22;5192;50.328;7.610;2023-08-30T02:28:51;13.90;99.90
10294;DHT22;5192;50.328;7.610;2023-08-30T02:31:18;13.80;99.90
10294;DHT22;5192;50.328;7.610;2023-08-30T02:33:46;13.70;99.90
10294;DHT22;5192;50.328;7.610;2023-08-30T02:36:13;13.70;99.90
10294;DHT22;5192;50.328;7.610;2023-08-30T02:38:41;13.60;99.90
10294;DHT22;5192;50.328;7.610;2023-08-30T02:41:10;13.60;99.90
10294;DHT22;5192;50.328;7.610;2023-08-30T02:43:37;13.50;99.90
10294;DHT22;5192;50.328;7.610;2023-08-30T02:46:04;13.50;99.90
10294;DHT22;5192;50.328;7.610;2023-08-30T02:48:33;13.50;99.90
10294;DHT22;5192;50.328;7.610;2023-08-30T02:51:00;13.40;99.90
10294;DHT22;5192;50.328;7.610;2023-08-30T02:53:27;13.40;99.90
10294;DHT22;5192;50.328;7.610;2023-08-30T02:55:54;13.30;99.90
10294;DHT22;5192;50.328;7.610;2023-08-30T02:58:21;13.30;99.90
10294;DHT22;5192;50.328;7.610;2023-08-30T03:00:48;13.20;99.90
10294;DHT22;5192;50.328;7.610;2023-08-30T03:03:15;13.20;99.90
10294;DHT22;5192;50.328;7.610;2023-08-30T03:05:42;13.10;99.90
10294;DHT22;5192;50.328;7.610;2023-08-30T03:08:09;13.10;99.90
10294;DHT22;5192;50.328;7.610;2023-08-30T03:10:37;13.00;99.90
10294;DHT22;5192;50.328;7.610;2023-08-30T03:13:05;12.90;99.90
10294;DHT22;5192;50.328;7.610;2023-08-30T03:15:32;12.90;99.90
10294;DHT22;5192;50.328;7.610;2023-08-30T03:18:00;12.80;99.90
10294;DHT22;5192;50.328;7.610;2023-08-30T03:20:27;12.80;99.90
10294;DHT22;5192;50.328;7.610;2023-08-30T03:22:59;12.80;99.90
10294;DHT22;5192;50.328;7.610;2023-08-30T03:25:28;12.70;99.90
10294;DHT22;5192;50.328;7.610;2023-08-30T03:27:56;12.70;99.90
10294;DHT22;5192;50.328;7.610;2023-08-30T03:30:23;12.60;99.90
10294;DHT22;5192;50.328;7.610;2023-08-30T03:32:50;12.60;99.90
10294;DHT22;5192;50.328;7.610;2023-08-30T03:35:17;12.60;99.90
10294;DHT22;5192;50.328;7.610;2023-08-30T03:37:44;12.50;99.90
10294;DHT22;5192;50.328;7.610;2023-08-30T03:40:11;12.50;99.90
10294;DHT22;5192;50.328;7.610;2023-08-30T03:42:39;12.40;99.90
10294;DHT22;5192;50.328;7.610;2023-08-30T03:45:09;12.40;99.90
10294;DHT22;5192;50.328;7.610;2023-08-30T03:47:35;12.30;99.90
10294;DHT22;5192;50.328;7.610;2023-08-30T03:50:01;12.30;99.90
10294;DHT22;5192;50.328;7.610;2023-08-30T03:52:30;12.30;99.90
10294;DHT22;5192;50.328;7.610;2023-08-30T03:54:57;12.30;99.90
10294;DHT22;5192;50.328;7.610;2023-08-30T03:57:24;12.30;99.90
10294;DHT22;5192;50.328;7.610;2023-08-30T03:59:52;12.30;99.90
10294;DHT22;5192;50.328;7.610;2023-08-30T04:02:20;12.30;99.90
10294;DHT22;5192;50.328;7.610;2023-08-30T04:04:48;12.30;99.90
10294;DHT22;5192;50.328;7.610;2023-08-30T04:07:15;12.30;99.90
10294;DHT22;5192;50.328;7.610;2023-08-30T04:09:42;12.20;99.90
10294;DHT22;5192;50.328;7.610;2023-08-30T04:12:09;12.20;99.90
10294;DHT22;5192;50.328;7.610;2023-08-30T04:14:36;12.20;99.90
10294;DHT22;5192;50.328;7.610;2023-08-30T04:17:03;12.00;99.90
10294;DHT22;5192;50.328;7.610;2023-08-30T04:19:30;12.10;99.90
10294;DHT22;5192;50.328;7.610;2023-08-30T04:21:56;12.00;99.90
10294;DHT22;5192;50.328;7.610;2023-08-30T04:24:24;12.00;99.90
10294;DHT22;5192;50.328;7.610;2023-08-30T04:26:51;12.00;99.90
10294;DHT22;5192;50.328;7.610;2023-08-30T04:29:18;12.00;99.90
10294;DHT22;5192;50.328;7.610;2023-08-30T04:31:45;12.00;99.90
10294;DHT22;5192;50.328;7.610;2023-08-30T04:34:12;12.00;99.90
10294;DHT22;5192;50.328;7.610;2023-08-30T04:36:39;12.00;99.90
10294;DHT22;5192;50.328;7.610;2023-08-30T04:39:06;12.00;99.90
10294;DHT22;5192;50.328;7.610;2023-08-30T04:41:32;12.00;99.90
10294;DHT22;5192;50.328;7.610;2023-08-30T04:44:00;12.00;99.90
10294;DHT22;5192;50.328;7.610;2023-08-30T04:46:26;12.00;99.90
10294;DHT22;5192;50.328;7.610;2023-08-30T04:48:52;12.00;99.90
10294;DHT22;5192;50.328;7.610;2023-08-30T04:51:19;12.00;99.90
10294;DHT22;5192;50.328;7.610;2023-08-30T04:53:46;12.00;99.90
10294;DHT22;5192;50.328;7.610;2023-08-30T04:56:13;12.00;99.90
10294;DHT22;5192;50.328;7.610;2023-08-30T04:58:41;12.00;99.90
10294;DHT22;5192;50.328;7.610;2023-08-30T05:01:08;12.00;99.90
10294;DHT22;5192;50.328;7.610;2023-08-30T05:03:35;12.00;99.90
10294;DHT22;5192;50.328;7.610;2023-08-30T05:06:02;11.90;99.90
10294;DHT22;5192;50.328;7.610;2023-08-30T05:08:31;11.90;99.90
10294;DHT22;5192;50.328;7.610;2023-08-30T05:10:58;11.90;99.90
10294;DHT22;5192;50.328;7.610;2023-08-30T05:13:25;11.90;99.90
10294;DHT22;5192;50.328;7.610;2023-08-30T05:15:51;11.90;99.90
10294;DHT22;5192;50.328;7.610;2023-08-30T05:18:20;12.00;99.90
10294;DHT22;5192;50.328;7.610;2023-08-30T05:20:47;12.00;99.90
10294;DHT22;5192;50.328;7.610;2023-08-30T05:23:14;12.00;99.90
10294;DHT22;5192;50.328;7.610;2023-08-30T05:25:41;12.00;99.90
10294;DHT22;5192;50.328;7.610;2023-08-30T05:28:08;12.00;99.90
10294;DHT22;5192;50.328;7.610;2023-08-30T05:30:34;12.00;99.90
10294;DHT22;5192;50.328;7.610;2023-08-30T05:33:01;12.00;99.90
10294;DHT22;5192;50.328;7.610;2023-08-30T05:35:29;12.00;99.90
10294;DHT22;5192;50.328;7.610;2023-08-30T05:37:56;12.10;99.90
10294;DHT22;5192;50.328;7.610;2023-08-30T05:40:23;12.10;99.90
10294;DHT22;5192;50.328;7.610;2023-08-30T05:42:51;12.10;99.90
10294;DHT22;5192;50.328;7.610;2023-08-30T05:45:19;12.10;99.90
10294;DHT22;5192;50.328;7.610;2023-08-30T05:47:46;12.20;99.90
10294;DHT22;5192;50.328;7.610;2023-08-30T05:50:14;12.20;99.90
10294;DHT22;5192;50.328;7.610;2023-08-30T05:52:41;12.30;99.90
10294;DHT22;5192;50.328;7.610;2023-08-30T05:55:11;12.40;99.90
10294;DHT22;5192;50.328;7.610;2023-08-30T05:57:38;12.30;99.90
10294;DHT22;5192;50.328;7.610;2023-08-30T06:00:05;12.40;99.90
10294;DHT22;5192;50.328;7.610;2023-08-30T06:02:32;12.40;99.90
10294;DHT22;5192;50.328;7.610;2023-08-30T06:04:59;12.40;99.90
10294;DHT22;5192;50.328;7.610;2023-08-30T06:07:26;12.40;99.90
10294;DHT22;5192;50.328;7.610;2023-08-30T06:09:54;12.40;99.90
10294;DHT22;5192;50.328;7.610;2023-08-30T06:12:22;12.50;99.90
10294;DHT22;5192;50.328;7.610;2023-08-30T06:14:49;12.50;99.90
10294;DHT22;5192;50.328;7.610;2023-08-30T06:17:20;12.60;99.90
10294;DHT22;5192;50.328;7.610;2023-08-30T06:19:49;12.60;99.90
10294;DHT22;5192;50.328;7.610;2023-08-30T06:22:17;12.60;99.90
10294;DHT22;5192;50.328;7.610;2023-08-30T06:24:44;12.60;99.90
10294;DHT22;5192;50.328;7.610;2023-08-30T06:27:10;12.70;99.90
10294;DHT22;5192;50.328;7.610;2023-08-30T06:29:37;12.70;99.90
10294;DHT22;5192;50.328;7.610;2023-08-30T06:32:03;12.80;99.90
10294;DHT22;5192;50.328;7.610;2023-08-30T06:34:30;12.80;99.90
10294;DHT22;5192;50.328;7.610;2023-08-30T06:36:57;12.80;99.90
10294;DHT22;5192;50.328;7.610;2023-08-30T06:39:25;12.80;99.90
10294;DHT22;5192;50.328;7.610;2023-08-30T06:41:52;12.90;99.90
10294;DHT22;5192;50.328;7.610;2023-08-30T06:44:19;12.90;99.90
10294;DHT22;5192;50.328;7.610;2023-08-30T06:46:45;12.90;99.90
10294;DHT22;5192;50.328;7.610;2023-08-30T06:49:12;12.90;99.90
10294;DHT22;5192;50.328;7.610;2023-08-30T06:51:40;12.90;99.90
10294;DHT22;5192;50.328;7.610;2023-08-30T06:54:06;13.00;99.90
10294;DHT22;5192;50.328;7.610;2023-08-30T06:56:32;13.00;99.90
10294;DHT22;5192;50.328;7.610;2023-08-30T06:59:01;13.00;99.90
10294;DHT22;5192;50.328;7.610;2023-08-30T07:01:29;13.10;99.90
10294;DHT22;5192;50.328;7.610;2023-08-30T07:03:55;13.20;99.90
10294;DHT22;5192;50.328;7.610;2023-08-30T07:06:22;13.20;99.90
10294;DHT22;5192;50.328;7.610;2023-08-30T07:08:51;13.30;99.90
10294;DHT22;5192;50.328;7.610;2023-08-30T07:11:16;13.30;99.90
10294;DHT22;5192;50.328;7.610;2023-08-30T07:13:46;13.40;99.90
10294;DHT22;5192;50.328;7.610;2023-08-30T07:16:12;13.40;99.90
10294;DHT22;5192;50.328;7.610;2023-08-30T07:18:39;13.40;99.90
10294;DHT22;5192;50.328;7.610;2023-08-30T07:21:05;13.50;99.90
10294;DHT22;5192;50.328;7.610;2023-08-30T07:23:33;13.50;99.90
10294;DHT22;5192;50.328;7.610;2023-08-30T07:26:00;13.50;99.90
10294;DHT22;5192;50.328;7.610;2023-08-30T07:28:26;13.60;99.90
10294;DHT22;5192;50.328;7.610;2023-08-30T07:31:03;13.60;99.90
10294;DHT22;5192;50.328;7.610;2023-08-30T07:33:30;13.60;99.90
10294;DHT22;5192;50.328;7.610;2023-08-30T07:35:58;13.70;99.90
10294;DHT22;5192;50.328;7.610;2023-08-30T07:38:25;13.70;99.90
10294;DHT22;5192;50.328;7.610;2023-08-30T07:40:54;13.80;99.90
10294;DHT22;5192;50.328;7.610;2023-08-30T07:43:21;13.90;99.90
10294;DHT22;5192;50.328;7.610;2023-08-30T07:45:49;13.90;99.90
10294;DHT22;5192;50.328;7.610;2023-08-30T07:48:15;14.00;99.80
10294;DHT22;5192;50.328;7.610;2023-08-30T07:50:42;14.00;99.40
10294;DHT22;5192;50.328;7.610;2023-08-30T07:53:09;14.20;96.90
10294;DHT22;5192;50.328;7.610;2023-08-30T07:55:37;14.10;94.70
10294;DHT22;5192;50.328;7.610;2023-08-30T07:58:04;14.20;94.30
10294;DHT22;5192;50.328;7.610;2023-08-30T08:00:33;14.30;95.60
10294;DHT22;5192;50.328;7.610;2023-08-30T08:03:00;14.40;91.70
10294;DHT22;5192;50.328;7.610;2023-08-30T08:05:28;14.50;90.80
10294;DHT22;5192;50.328;7.610;2023-08-30T08:07:58;14.70;89.70
10294;DHT22;5192;50.328;7.610;2023-08-30T08:10:33;14.80;85.80
10294;DHT22;5192;50.328;7.610;2023-08-30T08:13:01;14.80;81.30
10294;DHT22;5192;50.328;7.610;2023-08-30T08:15:32;15.00;81.40
10294;DHT22;5192;50.328;7.610;2023-08-30T08:18:03;15.10;83.60
10294;DHT22;5192;50.328;7.610;2023-08-30T08:20:29;15.20;79.20
10294;DHT22;5192;50.328;7.610;2023-08-30T08:22:56;15.30;75.60
10294;DHT22;5192;50.328;7.610;2023-08-30T08:25:27;15.40;73.60
10294;DHT22;5192;50.328;7.610;2023-08-30T08:27:54;15.50;72.00
10294;DHT22;5192;50.328;7.610;2023-08-30T08:30:21;15.60;70.60
10294;DHT22;5192;50.328;7.610;2023-08-30T08:32:47;15.70;69.70
10294;DHT22;5192;50.328;7.610;2023-08-30T08:35:16;15.80;70.00
10294;DHT22;5192;50.328;7.610;2023-08-30T08:37:43;15.90;69.10
10294;DHT22;5192;50.328;7.610;2023-08-30T08:40:12;16.00;66.20
10294;DHT22;5192;50.328;7.610;2023-08-30T08:42:44;16.10;65.20
10294;DHT22;5192;50.328;7.610;2023-08-30T08:45:13;16.20;67.20
10294;DHT22;5192;50.328;7.610;2023-08-30T08:47:42;16.40;58.00
10294;DHT22;5192;50.328;7.610;2023-08-30T08:50:11;16.40;58.20
10294;DHT22;5192;50.328;7.610;2023-08-30T08:52:40;16.50;54.00
10294;DHT22;5192;50.328;7.610;2023-08-30T08:55:07;16.60;51.50
10294;DHT22;5192;50.328;7.610;2023-08-30T08:57:34;16.80;48.50
10294;DHT22;5192;50.328;7.610;2023-08-30T09:00:03;16.90;45.00
10294;DHT22;5192;50.328;7.610;2023-08-30T09:02:30;17.10;45.40
10294;DHT22;5192;50.328;7.610;2023-08-30T09:04:58;17.30;39.60
10294;DHT22;5192;50.328;7.610;2023-08-30T09:07:29;17.50;50.70
10294;DHT22;5192;50.328;7.610;2023-08-30T09:09:55;17.60;50.30
10294;DHT22;5192;50.328;7.610;2023-08-30T09:12:24;17.60;49.80
10294;DHT22;5192;50.328;7.610;2023-08-30T09:14:56;17.60;48.00
10294;DHT22;5192;50.328;7.610;2023-08-30T09:17:23;17.60;49.80
10294;DHT22;5192;50.328;7.610;2023-08-30T09:19:51;17.50;47.60
10294;DHT22;5192;50.328;7.610;2023-08-30T09:22:18;17.50;49.20
10294;DHT22;5192;50.328;7.610;2023-08-30T09:24:45;17.50;50.00
10294;DHT22;5192;50.328;7.610;2023-08-30T09:27:10;17.70;48.20
10294;DHT22;5192;50.328;7.610;2023-08-30T09:29:39;17.60;39.80
10294;DHT22;5192;50.328;7.610;2023-08-30T09:32:04;17.80;30.60
10294;DHT22;5192;50.328;7.610;2023-08-30T09:34:31;18.10;27.20
10294;DHT22;5192;50.328;7.610;2023-08-30T09:36:58;18.20;23.90
10294;DHT22;5192;50.328;7.610;2023-08-30T09:39:29;18.40;26.70
10294;DHT22;5192;50.328;7.610;2023-08-30T09:41:57;18.50;24.90
10294;DHT22;5192;50.328;7.610;2023-08-30T09:44:23;18.40;18.60
10294;DHT22;5192;50.328;7.610;2023-08-30T09:46:54;18.40;18.00
10294;DHT22;5192;50.328;7.610;2023-08-30T09:49:23;18.30;22.90
10294;DHT22;5192;50.328;7.610;2023-08-30T09:51:51;18.50;14.80
10294;DHT22;5192;50.328;7.610;2023-08-30T09:54:24;18.50;14.20
10294;DHT22;5192;50.328;7.610;2023-08-30T09:56:51;18.80;17.00
10294;DHT22;5192;50.328;7.610;2023-08-30T09:59:23;18.60;8.80
10294;DHT22;5192;50.328;7.610;2023-08-30T10:01:51;18.60;6.70
10294;DHT22;5192;50.328;7.610;2023-08-30T10:04:19;18.50;8.20
10294;DHT22;5192;50.328;7.610;2023-08-30T10:06:47;18.70;8.90
10294;DHT22;5192;50.328;7.610;2023-08-30T10:09:15;18.90;9.20
10294;DHT22;5192;50.328;7.610;2023-08-30T10:11:46;18.90;3.40
10294;DHT22;5192;50.328;7.610;2023-08-30T10:14:13;19.10;2.60
10294;DHT22;5192;50.328;7.610;2023-08-30T10:16:47;19.00;1.00
10294;DHT22;5192;50.328;7.610;2023-08-30T10:19:32;19.00;3.70
10294;DHT22;5192;50.328;7.610;2023-08-30T10:22:18;18.90;1.40
10294;DHT22;5192;50.328;7.610;2023-08-30T10:24:51;18.80;1.00
10294;DHT22;5192;50.328;7.610;2023-08-30T10:27:21;19.00;4.10
10294;DHT22;5192;50.328;7.610;2023-08-30T10:29:49;19.20;1.00
10294;DHT22;5192;50.328;7.610;2023-08-30T10:32:21;19.20;1.00
10294;DHT22;5192;50.328;7.610;2023-08-30T10:34:51;19.30;1.00
10294;DHT22;5192;50.328;7.610;2023-08-30T10:37:29;19.20;1.00
10294;DHT22;5192;50.328;7.610;2023-08-30T10:40:01;19.40;1.00
10294;DHT22;5192;50.328;7.610;2023-08-30T10:42:31;19.20;1.00
10294;DHT22;5192;50.328;7.610;2023-08-30T10:45:22;19.30;1.00
10294;DHT22;5192;50.328;7.610;2023-08-30T10:47:54;19.60;1.00
10294;DHT22;5192;50.328;7.610;2023-08-30T10:50:28;19.80;1.00
10294;DHT22;5192;50.328;7.610;2023-08-30T10:52:59;19.90;1.00
10294;DHT22;5192;50.328;7.610;2023-08-30T10:55:27;20.00;1.00
10294;DHT22;5192;50.328;7.610;2023-08-30T10:58:02;20.20;1.00
10294;DHT22;5192;50.328;7.610;2023-08-30T11:00:32;20.40;1.00
10294;DHT22;5192;50.328;7.610;2023-08-30T11:03:00;20.70;1.00
10294;DHT22;5192;50.328;7.610;2023-08-30T11:05:27;20.60;1.00
10294;DHT22;5192;50.328;7.610;2023-08-30T11:07:54;20.50;1.00
10294;DHT22;5192;50.328;7.610;2023-08-30T11:10:21;20.40;1.00
10294;DHT22;5192;50.328;7.610;2023-08-30T11:12:48;20.30;1.00
10294;DHT22;5192;50.328;7.610;2023-08-30T11:15:17;20.20;1.00
10294;DHT22;5192;50.328;7.610;2023-08-30T11:17:43;20.30;1.00
10294;DHT22;5192;50.328;7.610;2023-08-30T11:20:15;20.30;1.00
10294;DHT22;5192;50.328;7.610;2023-08-30T11:22:47;20.20;1.00
10294;DHT22;5192;50.328;7.610;2023-08-30T11:25:15;20.40;1.00
10294;DHT22;5192;50.328;7.610;2023-08-30T11:27:42;20.40;1.00
10294;DHT22;5192;50.328;7.610;2023-08-30T11:30:10;20.10;1.00
10294;DHT22;5192;50.328;7.610;2023-08-30T11:32:39;20.20;1.00
10294;DHT22;5192;50.328;7.610;2023-08-30T11:35:06;20.10;1.00
10294;DHT22;5192;50.328;7.610;2023-08-30T11:37:34;19.90;1.00
10294;DHT22;5192;50.328;7.610;2023-08-30T11:40:02;19.90;1.00
10294;DHT22;5192;50.328;7.610;2023-08-30T11:42:31;19.80;1.00
10294;DHT22;5192;50.328;7.610;2023-08-30T11:44:58;19.70;1.00
10294;DHT22;5192;50.328;7.610;2023-08-30T11:47:33;19.60;1.00
10294;DHT22;5192;50.328;7.610;2023-08-30T11:50:00;19.50;1.00
10294;DHT22;5192;50.328;7.610;2023-08-30T11:52:27;19.50;1.00
10294;DHT22;5192;50.328;7.610;2023-08-30T11:54:59;19.50;1.00
10294;DHT22;5192;50.328;7.610;2023-08-30T11:57:33;19.20;1.00
10294;DHT22;5192;50.328;7.610;2023-08-30T12:00:14;19.10;1.00
10294;DHT22;5192;50.328;7.610;2023-08-30T12:02:41;19.10;1.00
10294;DHT22;5192;50.328;7.610;2023-08-30T12:05:12;19.30;1.00
10294;DHT22;5192;50.328;7.610;2023-08-30T12:07:40;19.30;1.00
10294;DHT22;5192;50.328;7.610;2023-08-30T12:10:10;19.40;1.00
10294;DHT22;5192;50.328;7.610;2023-08-30T12:12:47;19.60;1.00
10294;DHT22;5192;50.328;7.610;2023-08-30T12:15:14;20.00;1.00
10294;DHT22;5192;50.328;7.610;2023-08-30T12:17:42;20.20;1.00
10294;DHT22;5192;50.328;7.610;2023-08-30T12:20:19;20.20;1.00
10294;DHT22;5192;50.328;7.610;2023-08-30T12:22:54;20.30;1.00
10294;DHT22;5192;50.328;7.610;2023-08-30T12:25:22;20.50;1.00
10294;DHT22;5192;50.328;7.610;2023-08-30T12:27:50;20.70;1.00
10294;DHT22;5192;50.328;7.610;2023-08-30T12:30:17;20.40;1.00
10294;DHT22;5192;50.328;7.610;2023-08-30T12:32:47;20.20;1.00
10294;DHT22;5192;50.328;7.610;2023-08-30T12:35:14;20.50;1.00
10294;DHT22;5192;50.328;7.610;2023-08-30T12:37:42;20.40;1.00
10294;DHT22;5192;50.328;7.610;2023-08-30T12:40:09;20.50;1.00
10294;DHT22;5192;50.328;7.610;2023-08-30T12:42:37;20.50;1.00
10294;DHT22;5192;50.328;7.610;2023-08-30T12:45:06;20.50;1.00
10294;DHT22;5192;50.328;7.610;2023-08-30T12:47:34;20.30;1.00
10294;DHT22;5192;50.328;7.610;2023-08-30T12:50:01;20.30;1.00
10294;DHT22;5192;50.328;7.610;2023-08-30T12:52:29;20.20;1.00
10294;DHT22;5192;50.328;7.610;2023-08-30T12:55:00;20.50;1.00
10294;DHT22;5192;50.328;7.610;2023-08-30T12:57:36;20.70;1.00
10294;DHT22;5192;50.328;7.610;2023-08-30T13:00:05;20.70;1.00
10294;DHT22;5192;50.328;7.610;2023-08-30T13:02:33;20.70;1.00
10294;DHT22;5192;50.328;7.610;2023-08-30T13:05:01;21.20;1.00
10294;DHT22;5192;50.328;7.610;2023-08-30T13:07:28;21.20;1.00
10294;DHT22;5192;50.328;7.610;2023-08-30T13:09:55;21.40;1.00
10294;DHT22;5192;50.328;7.610;2023-08-30T13:12:23;21.40;1.00
10294;DHT22;5192;50.328;7.610;2023-08-30T13:14:49;21.10;1.00
10294;DHT22;5192;50.328;7.610;2023-08-30T13:17:18;20.90;1.00
10294;DHT22;5192;50.328;7.610;2023-08-30T13:19:46;21.10;1.00
10294;DHT22;5192;50.328;7.610;2023-08-30T13:22:14;20.90;1.00
10294;DHT22;5192;50.328;7.610;2023-08-30T13:24:41;20.80;1.00
10294;DHT22;5192;50.328;7.610;2023-08-30T13:27:08;20.90;1.00
10294;DHT22;5192;50.328;7.610;2023-08-30T13:29:35;20.80;1.00
10294;DHT22;5192;50.328;7.610;2023-08-30T13:32:00;20.90;1.00
10294;DHT22;5192;50.328;7.610;2023-08-30T13:34:26;21.20;1.00
10294;DHT22;5192;50.328;7.610;2023-08-30T13:36:54;21.50;1.00
10294;DHT22;5192;50.328;7.610;2023-08-30T13:39:20;21.90;1.00
10294;DHT22;5192;50.328;7.610;2023-08-30T13:41:49;22.00;1.00
10294;DHT22;5192;50.328;7.610;2023-08-30T13:44:16;22.00;1.00
10294;DHT22;5192;50.328;7.610;2023-08-30T13:46:44;22.00;1.00
10294;DHT22;5192;50.328;7.610;2023-08-30T13:49:11;22.40;1.00
10294;DHT22;5192;50.328;7.610;2023-08-30T13:51:37;22.70;1.00
10294;DHT22;5192;50.328;7.610;2023-08-30T13:54:05;23.40;1.00
10294;DHT22;5192;50.328;7.610;2023-08-30T13:56:32;23.80;1.00
10294;DHT22;5192;50.328;7.610;2023-08-30T13:58:59;23.30;1.00
10294;DHT22;5192;50.328;7.610;2023-08-30T14:01:25;23.00;1.00
10294;DHT22;5192;50.328;7.610;2023-08-30T14:03:52;23.00;1.00
10294;DHT22;5192;50.328;7.610;2023-08-30T14:06:19;23.20;1.00
10294;DHT22;5192;50.328;7.610;2023-08-30T14:08:46;23.20;1.00
10294;DHT22;5192;50.328;7.610;2023-08-30T14:11:14;22.20;1.00
10294;DHT22;5192;50.328;7.610;2023-08-30T14:13:42;21.80;1.00
10294;DHT22;5192;50.328;7.610;2023-08-30T14:16:07;21.40;1.00
10294;DHT22;5192;50.328;7.610;2023-08-30T14:18:36;21.60;1.00
10294;DHT22;5192;50.328;7.610;2023-08-30T14:21:04;21.10;1.00
10294;DHT22;5192;50.328;7.610;2023-08-30T14:23:33;21.50;1.00
10294;DHT22;5192;50.328;7.610;2023-08-30T14:26:05;21.70;1.00
10294;DHT22;5192;50.328;7.610;2023-08-30T14:28:37;21.60;1.00
10294;DHT22;5192;50.328;7.610;2023-08-30T14:31:06;21.40;1.00
10294;DHT22;5192;50.328;7.610;2023-08-30T14:33:33;21.00;1.00
10294;DHT22;5192;50.328;7.610;2023-08-30T14:35:58;20.70;1.00
10294;DHT22;5192;50.328;7.610;2023-08-30T14:38:25;20.60;1.00
10294;DHT22;5192;50.328;7.610;2023-08-30T14:41:10;20.10;1.00
10294;DHT22;5192;50.328;7.610;2023-08-30T14:43:37;19.80;1.00
10294;DHT22;5192;50.328;7.610;2023-08-30T14:46:05;19.80;1.20
10294;DHT22;5192;50.328;7.610;2023-08-30T14:48:32;19.70;8.00
10294;DHT22;5192;50.328;7.610;2023-08-30T14:51:00;19.40;14.90
10294;DHT22;5192;50.328;7.610;2023-08-30T14:53:27;19.20;18.90
10294;DHT22;5192;50.328;7.610;2023-08-30T14:55:53;19.00;24.80
10294;DHT22;5192;50.328;7.610;2023-08-30T14:58:23;18.80;32.70
10294;DHT22;5192;50.328;7.610;2023-08-30T15:00:50;18.60;48.00
10294;DHT22;5192;50.328;7.610;2023-08-30T15:03:18;18.00;53.10
10294;DHT22;5192;50.328;7.610;2023-08-30T15:05:57;17.80;51.90
10294;DHT22;5192;50.328;7.610;2023-08-30T15:08:24;17.70;56.20
10294;DHT22;5192;50.328;7.610;2023-08-30T15:10:51;17.60;55.60
10294;DHT22;5192;50.328;7.610;2023-08-30T15:13:18;17.60;59.70
10294;DHT22;5192;50.328;7.610;2023-08-30T15:15:43;17.50;59.40
10294;DHT22;5192;50.328;7.610;2023-08-30T15:18:11;17.50;60.70
10294;DHT22;5192;50.328;7.610;2023-08-30T15:20:36;17.50;62.40
10294;DHT22;5192;50.328;7.610;2023-08-30T15:23:04;17.40;67.40
10294;DHT22;5192;50.328;7.610;2023-08-30T15:25:31;17.10;61.70
10294;DHT22;5192;50.328;7.610;2023-08-30T15:27:58;17.10;69.50
10294;DHT22;5192;50.328;7.610;2023-08-30T15:30:26;17.00;75.80
10294;DHT22;5192;50.328;7.610;2023-08-30T15:32:52;16.90;79.40
10294;DHT22;5192;50.328;7.610;2023-08-30T15:35:19;16.80;84.70
10294;DHT22;5192;50.328;7.610;2023-08-30T15:37:45;16.70;90.50
10294;DHT22;5192;50.328;7.610;2023-08-30T15:40:13;16.40;86.10
10294;DHT22;5192;50.328;7.610;2023-08-30T15:42:41;16.30;94.80
10294;DHT22;5192;50.328;7.610;2023-08-30T15:45:09;16.00;92.50
10294;DHT22;5192;50.328;7.610;2023-08-30T15:47:35;16.00;99.90
10294;DHT22;5192;50.328;7.610;2023-08-30T15:50:04;15.90;98.70
10294;DHT22;5192;50.328;7.610;2023-08-30T15:52:32;15.90;99.90
10294;DHT22;5192;50.328;7.610;2023-08-30T15:54:59;15.90;99.90
10294;DHT22;5192;50.328;7.610;2023-08-30T15:57:26;16.00;95.70
10294;DHT22;5192;50.328;7.610;2023-08-30T15:59:56;16.00;92.00
10294;DHT22;5192;50.328;7.610;2023-08-30T16:02:23;16.10;98.40